createdAt,value
2022-12-04T00:01:28.704Z,7.70
2022-12-04T00:04:00.150Z,5.70
2022-12-04T00:06:28.943Z,7.10
2022-12-04T00:08:57.351Z,7.10
2022-12-04T00:11:28.636Z,7.30
2022-12-04T00:14:01.599Z,7.30
2022-12-04T00:16:31.305Z,7.40
2022-12-04T00:18:59.567Z,6.70
2022-12-04T00:21:27.933Z,7.10
2022-12-04T00:23:56.008Z,6.90
2022-12-04T00:26:29.367Z,5.70
2022-12-04T00:28:57.688Z,7.40
2022-12-04T00:31:29.401Z,5.30
2022-12-04T00:33:57.691Z,6.60
2022-12-04T00:36:29.086Z,7.20
2022-12-04T00:38:59.929Z,7.00
2022-12-04T00:41:31.155Z,6.60
2022-12-04T00:44:03.134Z,6.30
2022-12-04T00:46:31.618Z,6.30
2022-12-04T00:48:59.588Z,5.70
2022-12-04T00:51:28.585Z,5.50
2022-12-04T00:53:56.765Z,5.70
2022-12-04T00:56:27.201Z,7.40
2022-12-04T00:58:58.020Z,6.40
2022-12-04T01:01:26.597Z,6.50
2022-12-04T01:03:55.925Z,6.20
2022-12-04T01:06:31.808Z,5.90
2022-12-04T01:09:01.613Z,5.80
2022-12-04T01:11:30.589Z,5.60
2022-12-04T01:13:58.972Z,4.60
2022-12-04T01:16:33.412Z,6.00
2022-12-04T01:19:01.984Z,5.20
2022-12-04T01:21:30.264Z,4.90
2022-12-04T01:23:59.376Z,7.10
2022-12-04T01:26:27.450Z,7.40
2022-12-04T01:28:55.821Z,6.90
2022-12-04T01:31:24.550Z,6.70
2022-12-04T01:33:53.184Z,5.50
2022-12-04T01:36:23.990Z,5.70
2022-12-04T01:38:52.422Z,6.30
2022-12-04T01:41:27.696Z,5.20
2022-12-04T01:44:16.728Z,6.00
2022-12-04T01:46:55.947Z,5.50
2022-12-04T01:49:52.257Z,4.70
2022-12-04T01:52:24.111Z,4.10
2022-12-04T01:54:59.981Z,4.80
2022-12-04T01:57:32.662Z,5.40
2022-12-04T02:00:06.469Z,4.50
2022-12-04T02:02:46.889Z,5.20
2022-12-04T02:05:19.510Z,4.20
2022-12-04T02:07:51.197Z,5.30
2022-12-04T02:10:21.492Z,5.00
2022-12-04T02:13:33.365Z,4.80
2022-12-04T02:16:32.423Z,4.40
2022-12-04T02:19:03.294Z,4.60
2022-12-04T02:21:38.557Z,5.80
2022-12-04T02:24:38.226Z,6.20
2022-12-04T02:27:14.488Z,5.10
2022-12-04T02:29:55.494Z,5.60
2022-12-04T02:32:38.577Z,5.60
2022-12-04T02:35:14.879Z,4.40
2022-12-04T02:37:50.792Z,5.20
2022-12-04T02:40:29.174Z,4.70
2022-12-04T02:43:03.857Z,4.80
2022-12-04T02:45:39.818Z,4.80
2022-12-04T02:48:08.888Z,5.40
2022-12-04T02:50:40.909Z,6.10
2022-12-04T02:53:13.539Z,5.30
2022-12-04T02:55:51.054Z,5.10
2022-12-04T02:58:34.240Z,5.30
2022-12-04T03:01:08.930Z,5.40
2022-12-04T03:03:37.771Z,5.30
2022-12-04T03:06:11.212Z,5.10
2022-12-04T03:08:46.508Z,5.00
2022-12-04T03:11:14.784Z,5.00
2022-12-04T03:13:57.083Z,4.20
2022-12-04T03:16:36.157Z,5.10
2022-12-04T03:19:28.246Z,5.20
2022-12-04T03:22:04.496Z,5.60
2022-12-04T03:24:59.587Z,4.90
2022-12-04T03:27:34.723Z,4.70
2022-12-04T03:30:16.009Z,5.10
2022-12-04T03:33:16.628Z,4.00
2022-12-04T03:35:48.014Z,3.30
2022-12-04T03:38:24.229Z,2.90
2022-12-04T03:41:04.292Z,4.50
2022-12-04T03:43:36.472Z,3.30
2022-12-04T03:46:11.880Z,3.40
2022-12-04T03:48:49.385Z,3.60
2022-12-04T03:51:27.593Z,4.20
2022-12-04T03:54:05.674Z,4.80
2022-12-04T03:56:43.498Z,4.60
2022-12-04T03:59:27.136Z,4.00
2022-12-04T04:02:00.151Z,3.60
2022-12-04T04:04:35.534Z,4.70
2022-12-04T04:07:12.230Z,4.90
2022-12-04T04:09:45.523Z,4.80
2022-12-04T04:12:28.027Z,5.10
2022-12-04T04:15:03.475Z,4.70
2022-12-04T04:17:38.686Z,3.10
2022-12-04T04:20:15.410Z,3.70
2022-12-04T04:22:45.618Z,3.60
2022-12-04T04:25:19.691Z,4.10
2022-12-04T04:27:56.089Z,4.30
2022-12-04T04:30:25.288Z,3.00
2022-12-04T04:33:13.320Z,4.00
2022-12-04T04:36:27.139Z,3.40
2022-12-04T04:39:12.713Z,3.20
2022-12-04T04:41:56.651Z,3.20
2022-12-04T04:45:12.517Z,3.10
2022-12-04T04:48:00.344Z,3.00
2022-12-04T04:50:30.264Z,3.30
2022-12-04T04:53:03.727Z,3.60
2022-12-04T04:55:34.447Z,3.60
2022-12-04T04:58:29.998Z,2.80
2022-12-04T05:01:04.938Z,3.50
2022-12-04T05:03:33.211Z,3.50
2022-12-04T05:21:30.681Z,4.50
2022-12-04T05:23:58.858Z,3.70
2022-12-04T05:26:27.201Z,2.70
2022-12-04T05:28:55.215Z,3.90
2022-12-04T05:31:23.378Z,3.60
2022-12-04T05:33:51.673Z,3.80
2022-12-04T05:36:19.851Z,3.20
2022-12-04T05:38:47.979Z,3.60
2022-12-04T05:41:16.106Z,3.00
2022-12-04T05:43:44.284Z,3.00
2022-12-04T05:46:12.493Z,3.80
2022-12-04T05:48:40.742Z,3.40
2022-12-04T05:51:10.871Z,3.30
2022-12-04T05:53:39.059Z,3.80
2022-12-04T05:56:08.197Z,3.90
2022-12-04T05:58:37.777Z,4.60
2022-12-04T06:01:15.119Z,3.80
2022-12-04T06:03:43.845Z,4.40
2022-12-04T06:06:22.219Z,4.50
2022-12-04T06:08:52.270Z,3.40
2022-12-04T06:11:23.511Z,4.90
2022-12-04T06:13:52.203Z,5.00
2022-12-04T06:16:23.485Z,5.00
2022-12-04T06:18:53.911Z,4.50
2022-12-04T06:21:24.309Z,3.80
2022-12-04T06:23:53.719Z,3.90
2022-12-04T06:26:22.824Z,4.00
2022-12-04T06:28:54.383Z,4.30
2022-12-04T06:31:23.318Z,5.40
2022-12-04T06:33:53.694Z,4.50
2022-12-04T06:36:22.568Z,4.60
2022-12-04T06:38:51.857Z,4.60
2022-12-04T06:41:21.709Z,4.10
2022-12-04T06:43:51.012Z,5.20
2022-12-04T06:46:24.585Z,5.40
2022-12-04T06:48:55.984Z,4.60
2022-12-04T06:51:27.110Z,4.10
2022-12-04T06:53:55.805Z,3.80
2022-12-04T06:56:26.848Z,3.80
2022-12-04T06:58:57.318Z,4.90
2022-12-04T07:01:28.401Z,5.80
2022-12-04T07:03:57.315Z,4.70
2022-12-04T07:06:32.046Z,6.00
2022-12-04T07:09:18.851Z,5.40
2022-12-04T07:11:47.126Z,3.60
2022-12-04T07:14:15.317Z,4.10
2022-12-04T07:16:43.848Z,4.10
2022-12-04T07:19:14.267Z,3.60
2022-12-04T07:21:43.011Z,4.10
2022-12-04T07:24:17.233Z,4.10
2022-12-04T07:26:45.901Z,4.10
2022-12-04T07:29:14.202Z,4.20
2022-12-04T07:31:42.768Z,3.70
2022-12-04T07:34:10.967Z,3.90
2022-12-04T07:36:40.163Z,4.10
2022-12-04T07:39:08.344Z,3.80
2022-12-04T07:41:36.319Z,5.10
2022-12-04T07:44:04.732Z,3.20
2022-12-04T07:46:33.032Z,4.00
2022-12-04T07:49:01.162Z,4.20
2022-12-04T07:51:29.968Z,3.80
2022-12-04T07:54:02.784Z,3.80
2022-12-04T07:56:32.959Z,3.30
2022-12-04T07:59:01.763Z,2.80
2022-12-04T08:01:30.901Z,2.40
2022-12-04T08:04:00.735Z,2.60
2022-12-04T08:06:30.572Z,3.00
2022-12-04T08:08:58.711Z,3.40
2022-12-04T08:11:28.042Z,3.10
2022-12-04T08:13:57.833Z,2.70
2022-12-04T08:16:27.639Z,2.80
2022-12-04T08:18:56.389Z,3.00
2022-12-04T08:21:27.568Z,3.20
2022-12-04T08:23:56.846Z,2.80
2022-12-04T08:26:27.794Z,3.40
2022-12-04T08:28:57.601Z,3.60
2022-12-04T08:31:28.268Z,3.50
2022-12-04T08:33:58.359Z,4.00
2022-12-04T08:36:28.067Z,4.40
2022-12-04T08:38:56.553Z,3.40
2022-12-04T08:41:25.753Z,3.90
2022-12-04T08:43:55.991Z,3.40
2022-12-04T08:46:26.063Z,4.00
2022-12-04T08:48:54.699Z,4.20
2022-12-04T08:51:29.523Z,4.50
2022-12-04T08:54:00.460Z,4.10
2022-12-04T08:56:30.788Z,3.90
2022-12-04T08:59:00.273Z,4.30
2022-12-04T09:01:29.573Z,5.10
2022-12-04T09:03:58.446Z,4.60
2022-12-04T09:06:26.679Z,4.10
2022-12-04T09:08:57.102Z,4.50
2022-12-04T09:11:27.538Z,3.80
2022-12-04T09:13:55.715Z,4.50
2022-12-04T09:16:25.289Z,3.90
2022-12-04T09:18:54.426Z,4.40
2022-12-04T09:21:23.987Z,3.90
2022-12-04T09:23:52.318Z,4.40
2022-12-04T09:26:29.812Z,4.00
2022-12-04T09:31:27.899Z,3.80
2022-12-04T09:33:58.965Z,4.00
2022-12-04T09:36:28.149Z,3.90
2022-12-04T09:38:57.567Z,3.70
2022-12-04T09:42:06.368Z,3.70
2022-12-04T09:44:42.738Z,3.70
2022-12-04T09:47:23.420Z,3.20
2022-12-04T09:50:15.212Z,3.40
2022-12-04T09:52:58.746Z,3.30
2022-12-04T09:55:36.486Z,3.30
2022-12-04T09:58:07.429Z,3.90
2022-12-04T10:00:40.772Z,3.70
2022-12-04T10:03:16.142Z,3.60
2022-12-04T10:06:02.511Z,3.60
2022-12-04T10:08:42.628Z,3.70
2022-12-04T10:11:17.186Z,3.40
2022-12-04T10:14:06.334Z,3.50
2022-12-04T10:16:47.810Z,4.20
2022-12-04T10:19:40.850Z,3.70
2022-12-04T10:22:24.293Z,3.90
2022-12-04T10:24:52.460Z,4.00
2022-12-04T10:27:20.636Z,3.60
2022-12-04T10:29:53.544Z,3.10
2022-12-04T10:32:33.428Z,3.00
2022-12-04T10:35:24.369Z,3.20
2022-12-04T10:38:11.475Z,3.30
2022-12-04T10:48:40.632Z,3.10
2022-12-04T10:51:17.477Z,3.10
2022-12-04T10:53:46.798Z,3.20
2022-12-04T10:56:21.015Z,3.00
2022-12-04T10:59:15.905Z,2.90
2022-12-04T11:01:45.054Z,3.50
2022-12-04T11:04:28.179Z,3.30
2022-12-04T11:07:20.765Z,3.30
2022-12-04T11:10:17.384Z,2.90
2022-12-04T11:12:58.980Z,3.10
2022-12-04T11:15:27.861Z,2.90
2022-12-04T11:18:06.681Z,2.80
2022-12-04T11:20:35.166Z,2.60
2022-12-04T11:23:05.188Z,2.80
2022-12-04T11:25:45.219Z,3.20
2022-12-04T11:28:39.899Z,3.40
2022-12-04T11:31:11.004Z,3.40
2022-12-04T11:33:47.858Z,3.00
2022-12-04T11:36:24.635Z,3.40
2022-12-04T11:39:03.139Z,3.30
2022-12-04T11:41:33.353Z,3.50
2022-12-04T11:44:01.529Z,3.80
2022-12-04T11:46:32.160Z,4.40
2022-12-04T11:49:01.573Z,4.20
2022-12-04T11:51:44.689Z,4.10
2022-12-04T11:54:28.525Z,4.70
2022-12-04T11:57:31.030Z,4.30
2022-12-04T12:00:05.015Z,4.50
2022-12-04T12:02:51.298Z,3.60
2022-12-04T12:05:47.811Z,4.00
2022-12-04T12:08:37.486Z,4.00
2022-12-04T12:11:13.851Z,3.10
2022-12-04T12:13:47.754Z,3.20
2022-12-04T12:16:38.171Z,3.20
2022-12-04T12:19:18.398Z,2.90
2022-12-04T12:22:05.553Z,3.50
2022-12-04T12:24:49.911Z,2.90
2022-12-04T12:27:44.139Z,3.20
2022-12-04T12:30:19.481Z,2.90
2022-12-04T12:33:09.338Z,3.70
2022-12-04T12:36:00.952Z,3.50
2022-12-04T12:38:39.081Z,3.50
2022-12-04T12:41:17.876Z,4.20
2022-12-04T12:44:12.160Z,3.30
2022-12-04T12:46:53.425Z,3.50
2022-12-04T12:49:31.738Z,3.50
2022-12-04T12:52:07.494Z,3.30
2022-12-04T12:54:54.902Z,2.60
2022-12-04T12:57:33.828Z,3.30
2022-12-04T13:00:04.665Z,3.80
2022-12-04T13:02:57.867Z,3.40
2022-12-04T13:05:33.480Z,3.70
2022-12-04T13:08:09.894Z,3.00
2022-12-04T13:10:46.140Z,2.90
2022-12-04T13:13:34.700Z,2.80
2022-12-04T13:16:14.928Z,3.20
2022-12-04T13:18:59.898Z,3.40
2022-12-04T13:21:39.924Z,2.80
2022-12-04T13:24:31.609Z,3.00
2022-12-04T13:27:18.529Z,2.50
2022-12-04T13:29:53.383Z,2.30
2022-12-04T13:32:43.839Z,2.70
2022-12-04T13:35:12.012Z,2.50
2022-12-04T13:37:47.295Z,2.40
2022-12-04T13:40:15.228Z,2.00
2022-12-04T13:42:44.121Z,2.50
2022-12-04T13:45:27.523Z,1.90
2022-12-04T13:48:00.401Z,1.80
2022-12-04T13:50:29.126Z,2.40
2022-12-04T13:52:57.305Z,2.40
2022-12-04T13:55:40.812Z,2.00
2022-12-04T13:58:11.670Z,2.70
2022-12-04T14:00:42.409Z,2.00
2022-12-04T14:03:30.242Z,2.10
2022-12-04T14:08:32.992Z,5.30
2022-12-04T14:11:14.224Z,4.10
2022-12-04T14:13:45.051Z,2.30
2022-12-04T14:16:44.605Z,2.40
2022-12-04T14:19:29.511Z,2.30
2022-12-04T14:21:57.787Z,1.70
2022-12-04T14:24:30.536Z,1.60
2022-12-04T14:27:14.833Z,1.80
2022-12-04T14:29:54.774Z,3.50
2022-12-04T14:32:26.237Z,1.60
2022-12-04T14:34:56.027Z,1.90
2022-12-04T14:37:35.849Z,1.50
2022-12-04T14:40:07.197Z,1.50
2022-12-04T14:42:39.925Z,1.50
2022-12-04T14:45:57.321Z,1.80
2022-12-04T14:48:53.425Z,4.00
2022-12-04T14:51:49.687Z,4.70
2022-12-04T14:54:20.880Z,1.80
2022-12-04T14:57:26.410Z,1.80
2022-12-04T14:59:56.041Z,1.80
2022-12-04T15:02:34.950Z,1.60
2022-12-04T15:05:03.798Z,1.60
2022-12-04T15:07:33.074Z,1.50
2022-12-04T15:10:14.112Z,1.40
2022-12-04T15:12:49.458Z,1.40
2022-12-04T15:15:25.125Z,1.50
2022-12-04T15:18:00.652Z,1.70
2022-12-04T15:20:38.664Z,1.40
2022-12-04T15:23:07.452Z,2.30
2022-12-04T15:25:45.707Z,1.70
2022-12-04T15:28:21.712Z,1.60
2022-12-04T15:30:52.697Z,1.40
2022-12-04T15:33:28.921Z,1.30
2022-12-04T15:36:02.019Z,1.70
2022-12-04T15:38:30.181Z,1.70
2022-12-04T15:41:00.714Z,1.70
2022-12-04T15:43:43.719Z,1.70
2022-12-04T15:46:22.463Z,4.60
2022-12-04T15:48:50.732Z,2.00
2022-12-04T15:51:21.364Z,1.90
2022-12-04T15:53:49.867Z,1.70
2022-12-04T15:56:21.661Z,1.80
2022-12-04T15:59:02.068Z,1.60
2022-12-04T16:01:39.848Z,1.70
2022-12-04T16:04:20.663Z,1.70
2022-12-04T16:06:51.622Z,1.70
2022-12-04T16:09:27.792Z,2.00
2022-12-04T16:12:03.939Z,2.10
2022-12-04T16:14:32.180Z,1.90
2022-12-04T16:17:05.913Z,2.10
2022-12-04T16:19:40.568Z,2.30
2022-12-04T16:22:20.607Z,2.00
2022-12-04T16:24:49.548Z,7.90
2022-12-04T16:27:22.895Z,3.30
2022-12-04T16:29:52.661Z,3.00
2022-12-04T16:32:24.541Z,3.40
2022-12-04T16:34:53.062Z,3.80
2022-12-04T16:37:22.785Z,3.00
2022-12-04T16:39:51.111Z,3.10
2022-12-04T16:42:25.651Z,3.20
2022-12-04T16:44:54.527Z,3.40
2022-12-04T16:47:22.704Z,2.70
2022-12-04T16:49:51.932Z,3.50
2022-12-04T16:52:20.699Z,3.70
2022-12-04T16:54:48.872Z,3.20
2022-12-04T16:57:17.312Z,2.90
2022-12-04T16:59:45.761Z,3.10
2022-12-04T17:02:22.822Z,3.50
2022-12-04T17:04:57.081Z,3.70
2022-12-04T17:07:25.794Z,3.40
2022-12-04T17:09:53.702Z,4.40
2022-12-04T17:12:21.881Z,3.80
2022-12-04T17:14:50.468Z,4.10
2022-12-04T17:17:18.650Z,3.80
2022-12-04T17:19:46.742Z,4.40
2022-12-04T17:22:15.311Z,3.70
2022-12-04T17:24:49.093Z,4.70
2022-12-04T17:29:49.771Z,4.90
2022-12-04T17:32:17.847Z,4.40
2022-12-04T17:34:46.333Z,4.90
2022-12-04T17:37:14.512Z,5.30
2022-12-04T17:39:42.616Z,5.30
2022-12-04T17:42:11.104Z,6.30
2022-12-04T17:44:39.357Z,6.30
2022-12-04T17:47:07.680Z,9.30
2022-12-04T17:49:36.425Z,9.10
2022-12-04T17:52:04.933Z,8.40
2022-12-04T17:54:34.829Z,8.20
2022-12-04T17:57:03.623Z,9.50
2022-12-04T17:59:32.112Z,9.00
2022-12-04T18:02:00.284Z,9.10
2022-12-04T18:04:28.762Z,9.10
2022-12-04T18:06:56.850Z,9.20
2022-12-04T18:09:24.930Z,8.90
2022-12-04T18:11:53.100Z,9.20
2022-12-04T18:14:21.178Z,10.30
2022-12-04T18:16:52.333Z,10.40
2022-12-04T18:19:23.475Z,10.90
2022-12-04T18:21:51.858Z,10.80
2022-12-04T18:24:20.860Z,11.40
2022-12-04T18:26:50.987Z,12.00
2022-12-04T18:29:22.328Z,13.00
2022-12-04T18:31:51.723Z,11.70
2022-12-04T18:34:20.621Z,12.60
2022-12-04T18:36:49.925Z,13.30
2022-12-04T18:39:21.124Z,13.40
2022-12-04T18:41:49.458Z,12.60
2022-12-04T18:44:18.145Z,12.70
2022-12-04T18:46:46.326Z,12.40
2022-12-04T18:49:14.605Z,11.70
2022-12-04T18:51:49.345Z,11.80
2022-12-04T18:54:24.060Z,11.70
2022-12-04T18:56:52.151Z,10.90
2022-12-04T18:59:26.767Z,11.20
2022-12-04T19:01:55.965Z,10.60
2022-12-04T19:04:25.165Z,11.40
2022-12-04T19:06:56.121Z,10.10
2022-12-04T19:10:02.037Z,9.20
2022-12-04T19:12:17.275Z,7.90
2022-12-04T19:14:45.611Z,8.50
2022-12-04T19:17:13.907Z,8.20
2022-12-04T19:19:42.379Z,8.00
2022-12-04T19:22:10.559Z,7.70
2022-12-04T19:24:38.635Z,8.20
2022-12-04T19:27:07.123Z,8.20
2022-12-04T19:29:35.703Z,7.90
2022-12-04T19:32:04.228Z,8.00
2022-12-04T19:34:32.882Z,7.80
2022-12-04T19:37:01.370Z,8.40
2022-12-04T19:39:29.448Z,8.40
2022-12-04T19:41:57.846Z,8.20
2022-12-04T19:44:47.816Z,9.20
2022-12-04T19:47:14.144Z,8.70
2022-12-04T19:49:42.217Z,8.80
2022-12-04T19:52:10.390Z,9.40
2022-12-04T19:54:38.976Z,10.10
2022-12-04T19:57:07.167Z,9.70
2022-12-04T19:59:38.587Z,10.10
2022-12-04T20:02:11.446Z,10.10
2022-12-04T20:04:39.977Z,9.50
2022-12-04T20:07:08.381Z,10.20
2022-12-04T20:09:36.860Z,9.10
2022-12-04T20:12:05.327Z,10.00
2022-12-04T20:14:33.409Z,10.30
2022-12-04T20:17:01.956Z,9.50
2022-12-04T20:19:30.071Z,8.90
2022-12-04T20:21:59.619Z,9.50
2022-12-04T20:24:27.963Z,9.40
2022-12-04T20:26:56.248Z,9.70
2022-12-04T20:29:25.039Z,9.40
2022-12-04T20:31:53.216Z,9.40
2022-12-04T20:34:21.598Z,9.10
2022-12-04T20:36:49.682Z,9.40
2022-12-04T20:39:20.327Z,9.00
2022-12-04T20:41:48.797Z,9.20
2022-12-04T20:44:19.239Z,9.60
2022-12-04T20:46:48.636Z,9.20
2022-12-04T20:49:21.733Z,8.90
2022-12-04T20:51:51.919Z,9.40
2022-12-04T20:54:22.241Z,9.60
2022-12-04T20:56:51.485Z,9.50
2022-12-04T20:59:22.004Z,9.40
2022-12-04T21:01:50.676Z,9.10
2022-12-04T21:04:20.001Z,9.10
2022-12-04T21:06:48.280Z,9.10
2022-12-04T21:09:22.977Z,9.60
2022-12-04T21:11:53.743Z,10.00
2022-12-04T21:14:28.416Z,10.00
2022-12-04T21:16:57.165Z,8.30
2022-12-04T21:19:26.123Z,8.80
2022-12-04T21:21:55.054Z,9.80
2022-12-04T21:24:26.347Z,9.90
2022-12-04T21:26:55.605Z,9.40
2022-12-04T21:29:23.789Z,9.60
2022-12-04T21:31:52.274Z,9.90
2022-12-04T21:34:20.349Z,9.80
2022-12-04T21:36:48.730Z,9.80
2022-12-04T21:39:16.907Z,9.80
2022-12-04T21:41:45.289Z,10.00
2022-12-04T21:44:15.823Z,14.90
2022-12-04T21:46:45.572Z,15.00
2022-12-04T21:49:14.541Z,11.40
2022-12-04T21:51:59.374Z,11.30
2022-12-04T21:54:28.682Z,10.10
2022-12-04T21:56:57.596Z,10.80
2022-12-04T21:59:26.349Z,10.30
2022-12-04T22:01:54.744Z,11.00
2022-12-04T22:04:23.166Z,10.00
2022-12-04T22:06:51.533Z,9.80
2022-12-04T22:09:20.195Z,9.70
2022-12-04T22:11:48.300Z,9.70
2022-12-04T22:14:16.476Z,10.50
2022-12-04T22:16:44.934Z,9.70
2022-12-04T22:19:13.447Z,9.50
2022-12-04T22:21:41.623Z,9.80
2022-12-04T22:24:10.338Z,9.50
2022-12-04T22:26:38.596Z,9.80
2022-12-04T22:29:27.154Z,9.10
2022-12-04T22:31:55.272Z,10.00
2022-12-04T22:34:23.699Z,9.80
2022-12-04T22:36:51.775Z,10.60
2022-12-04T22:39:19.956Z,10.30
2022-12-04T22:41:48.029Z,10.20
2022-12-04T22:44:16.314Z,10.60
2022-12-04T22:46:44.716Z,7.50
2022-12-04T22:49:12.871Z,9.70
2022-12-04T22:51:41.360Z,9.60
2022-12-04T22:54:13.995Z,9.80
2022-12-04T22:56:42.231Z,8.70
2022-12-04T22:59:10.419Z,10.10
2022-12-04T23:01:38.681Z,7.80
2022-12-04T23:04:06.751Z,8.80
2022-12-04T23:06:34.829Z,9.70
2022-12-04T23:09:07.512Z,9.30
2022-12-04T23:11:36.298Z,9.40
2022-12-04T23:14:06.366Z,9.20
2022-12-04T23:16:36.932Z,9.10
2022-12-04T23:19:07.261Z,9.10
2022-12-04T23:21:35.771Z,9.20
2022-12-04T23:24:04.456Z,9.10
2022-12-04T23:26:38.476Z,9.00
2022-12-04T23:29:29.766Z,8.70
2022-12-04T23:31:55.841Z,9.10
2022-12-04T23:34:24.086Z,8.90
2022-12-04T23:36:52.174Z,9.10
2022-12-04T23:39:20.138Z,8.50
2022-12-04T23:41:48.419Z,8.50
2022-12-04T23:44:16.702Z,8.10
2022-12-04T23:46:44.893Z,7.90
2022-12-04T23:49:13.154Z,8.50
2022-12-04T23:51:42.691Z,7.50
2022-12-04T23:54:10.844Z,8.10
2022-12-04T23:56:39.373Z,7.70
2022-12-04T23:59:07.711Z,8.00
